Tampico, Montana
Current Conditions -  °F | °C
As of 10:53 AM on Monday 26 Jan 2015 (Local Time) from KGGW Reporting Station
Clear Clear  
Wind Chill: 40°   Ceiling: Unl
Heat Index: 40°   Visibility: 10mi
Dew Point: 34°   Wind: 3mph
Humidity: 79%   Direction: 90°E
Pressure: 29.98"   Gusts: NA
Location:  48.3775°N, 106.613°W
Report Text: KGGW 261753Z AUTO 09003KT 10SM CLR 04/01 A2998 RMK AO2 SLP172 T00440011 10044 21022 53004
Loading
Personal Weather Stations






























Interactive Weather Map New forecast layout! Learn more

10-Day Weather Forecast

Advertisements
Track Severe Weather on mobile